sensor_id;sensor_type;location;lat;lon;timestamp;temperature;humidity
13982;DHT22;7065;50.880;5.502;2023-03-31T00:02:23;10.70;99.90
13982;DHT22;7065;50.880;5.502;2023-03-31T00:04:49;10.70;99.90
13982;DHT22;7065;50.880;5.502;2023-03-31T00:07:19;10.70;99.90
13982;DHT22;7065;50.880;5.502;2023-03-31T00:09:49;10.80;99.90
13982;DHT22;7065;50.880;5.502;2023-03-31T00:12:19;10.80;99.90
13982;DHT22;7065;50.880;5.502;2023-03-31T00:14:45;10.90;99.90
13982;DHT22;7065;50.880;5.502;2023-03-31T00:17:11;10.90;99.90
13982;DHT22;7065;50.880;5.502;2023-03-31T00:19:37;10.90;99.90
13982;DHT22;7065;50.880;5.502;2023-03-31T00:22:04;10.90;99.90
13982;DHT22;7065;50.880;5.502;2023-03-31T00:24:31;10.90;99.90
13982;DHT22;7065;50.880;5.502;2023-03-31T00:27:01;10.90;99.90
13982;DHT22;7065;50.880;5.502;2023-03-31T00:29:27;11.00;99.90
13982;DHT22;7065;50.880;5.502;2023-03-31T00:31:54;11.00;99.90
13982;DHT22;7065;50.880;5.502;2023-03-31T00:34:20;11.10;99.90
13982;DHT22;7065;50.880;5.502;2023-03-31T00:36:46;11.10;99.90
13982;DHT22;7065;50.880;5.502;2023-03-31T00:39:14;11.10;99.90
13982;DHT22;7065;50.880;5.502;2023-03-31T00:41:41;11.10;99.90
13982;DHT22;7065;50.880;5.502;2023-03-31T00:44:14;11.20;99.90
13982;DHT22;7065;50.880;5.502;2023-03-31T00:46:50;11.10;99.90
13982;DHT22;7065;50.880;5.502;2023-03-31T00:49:53;11.10;99.90
13982;DHT22;7065;50.880;5.502;2023-03-31T00:52:18;11.10;99.90
13982;DHT22;7065;50.880;5.502;2023-03-31T00:54:50;11.10;99.90
13982;DHT22;7065;50.880;5.502;2023-03-31T00:57:19;11.20;99.90
13982;DHT22;7065;50.880;5.502;2023-03-31T00:59:58;11.10;99.90
13982;DHT22;7065;50.880;5.502;2023-03-31T01:02:27;11.20;99.90
13982;DHT22;7065;50.880;5.502;2023-03-31T01:04:57;11.20;99.90
13982;DHT22;7065;50.880;5.502;2023-03-31T01:07:42;11.10;99.90
13982;DHT22;7065;50.880;5.502;2023-03-31T01:10:09;11.10;99.90
13982;DHT22;7065;50.880;5.502;2023-03-31T01:12:41;11.10;99.90
13982;DHT22;7065;50.880;5.502;2023-03-31T01:15:09;11.10;99.90
13982;DHT22;7065;50.880;5.502;2023-03-31T01:17:35;11.10;99.90
13982;DHT22;7065;50.880;5.502;2023-03-31T01:25:54;11.10;99.90
13982;DHT22;7065;50.880;5.502;2023-03-31T01:28:55;11.10;99.90
13982;DHT22;7065;50.880;5.502;2023-03-31T01:43:20;11.00;99.90
13982;DHT22;7065;50.880;5.502;2023-03-31T01:54:05;10.80;99.90
13982;DHT22;7065;50.880;5.502;2023-03-31T01:59:38;10.80;99.90
13982;DHT22;7065;50.880;5.502;2023-03-31T02:02:16;10.70;99.90
13982;DHT22;7065;50.880;5.502;2023-03-31T02:04:51;10.70;99.90
13982;DHT22;7065;50.880;5.502;2023-03-31T02:07:27;10.70;99.90
13982;DHT22;7065;50.880;5.502;2023-03-31T02:09:57;10.70;99.90
13982;DHT22;7065;50.880;5.502;2023-03-31T02:12:26;10.60;99.90
13982;DHT22;7065;50.880;5.502;2023-03-31T02:14:54;10.60;99.90
13982;DHT22;7065;50.880;5.502;2023-03-31T02:17:23;10.60;99.90
13982;DHT22;7065;50.880;5.502;2023-03-31T02:19:56;10.60;99.90
13982;DHT22;7065;50.880;5.502;2023-03-31T02:22:23;10.60;99.90
13982;DHT22;7065;50.880;5.502;2023-03-31T02:24:50;10.60;99.90
13982;DHT22;7065;50.880;5.502;2023-03-31T02:27:30;10.50;99.90
13982;DHT22;7065;50.880;5.502;2023-03-31T02:29:56;10.50;99.90
13982;DHT22;7065;50.880;5.502;2023-03-31T02:32:43;10.50;99.90
13982;DHT22;7065;50.880;5.502;2023-03-31T02:35:17;10.40;99.90
13982;DHT22;7065;50.880;5.502;2023-03-31T02:37:44;10.40;99.90
13982;DHT22;7065;50.880;5.502;2023-03-31T02:40:20;10.40;99.90
13982;DHT22;7065;50.880;5.502;2023-03-31T02:42:47;10.40;99.90
13982;DHT22;7065;50.880;5.502;2023-03-31T02:45:45;10.40;99.90
13982;DHT22;7065;50.880;5.502;2023-03-31T02:48:22;10.40;99.90
13982;DHT22;7065;50.880;5.502;2023-03-31T02:56:50;10.30;99.90
13982;DHT22;7065;50.880;5.502;2023-03-31T02:59:32;10.30;99.90
13982;DHT22;7065;50.880;5.502;2023-03-31T03:10:10;10.40;99.90
13982;DHT22;7065;50.880;5.502;2023-03-31T03:15:10;10.40;99.90
13982;DHT22;7065;50.880;5.502;2023-03-31T03:17:43;10.40;99.90
13982;DHT22;7065;50.880;5.502;2023-03-31T03:20:11;10.40;99.90
13982;DHT22;7065;50.880;5.502;2023-03-31T03:22:39;10.50;99.90
13982;DHT22;7065;50.880;5.502;2023-03-31T03:25:10;10.50;99.90
13982;DHT22;7065;50.880;5.502;2023-03-31T03:27:37;10.50;99.90
13982;DHT22;7065;50.880;5.502;2023-03-31T03:30:05;10.40;99.90
13982;DHT22;7065;50.880;5.502;2023-03-31T03:32:32;10.40;99.90
13982;DHT22;7065;50.880;5.502;2023-03-31T03:34:59;10.30;99.90
13982;DHT22;7065;50.880;5.502;2023-03-31T03:37:25;10.30;99.90
13982;DHT22;7065;50.880;5.502;2023-03-31T03:39:50;10.30;99.90
13982;DHT22;7065;50.880;5.502;2023-03-31T03:42:16;10.20;99.90
13982;DHT22;7065;50.880;5.502;2023-03-31T03:44:42;10.20;99.90
13982;DHT22;7065;50.880;5.502;2023-03-31T03:47:08;10.10;99.90
13982;DHT22;7065;50.880;5.502;2023-03-31T03:49:33;10.10;99.90
13982;DHT22;7065;50.880;5.502;2023-03-31T03:51:59;10.10;99.90
13982;DHT22;7065;50.880;5.502;2023-03-31T03:54:25;10.10;99.90
13982;DHT22;7065;50.880;5.502;2023-03-31T03:56:51;10.20;99.90
13982;DHT22;7065;50.880;5.502;2023-03-31T03:59:17;10.20;99.90
13982;DHT22;7065;50.880;5.502;2023-03-31T04:01:43;10.20;99.90
13982;DHT22;7065;50.880;5.502;2023-03-31T04:04:09;10.20;99.90
13982;DHT22;7065;50.880;5.502;2023-03-31T04:06:35;10.30;99.90
13982;DHT22;7065;50.880;5.502;2023-03-31T04:09:01;10.30;99.90
13982;DHT22;7065;50.880;5.502;2023-03-31T04:11:28;10.30;99.90
13982;DHT22;7065;50.880;5.502;2023-03-31T04:13:53;10.30;99.90
13982;DHT22;7065;50.880;5.502;2023-03-31T04:16:19;10.30;99.90
13982;DHT22;7065;50.880;5.502;2023-03-31T04:18:45;10.40;99.90
13982;DHT22;7065;50.880;5.502;2023-03-31T04:21:12;10.40;99.90
13982;DHT22;7065;50.880;5.502;2023-03-31T04:23:40;10.40;99.90
13982;DHT22;7065;50.880;5.502;2023-03-31T04:26:17;10.50;99.90
13982;DHT22;7065;50.880;5.502;2023-03-31T04:28:43;10.40;99.90
13982;DHT22;7065;50.880;5.502;2023-03-31T04:31:13;10.40;99.90
13982;DHT22;7065;50.880;5.502;2023-03-31T04:33:53;10.40;99.90
13982;DHT22;7065;50.880;5.502;2023-03-31T04:36:20;10.40;99.90
13982;DHT22;7065;50.880;5.502;2023-03-31T04:38:47;10.30;99.90
13982;DHT22;7065;50.880;5.502;2023-03-31T04:41:16;10.40;99.90
13982;DHT22;7065;50.880;5.502;2023-03-31T04:43:42;10.30;99.90
13982;DHT22;7065;50.880;5.502;2023-03-31T04:46:08;10.40;99.90
13982;DHT22;7065;50.880;5.502;2023-03-31T04:48:34;10.40;99.90
13982;DHT22;7065;50.880;5.502;2023-03-31T04:51:01;10.30;99.90
13982;DHT22;7065;50.880;5.502;2023-03-31T04:53:27;10.40;99.90
13982;DHT22;7065;50.880;5.502;2023-03-31T04:55:52;10.30;99.90
13982;DHT22;7065;50.880;5.502;2023-03-31T04:58:18;10.40;99.90
13982;DHT22;7065;50.880;5.502;2023-03-31T05:00:44;10.40;99.90
13982;DHT22;7065;50.880;5.502;2023-03-31T05:03:10;10.40;99.90
13982;DHT22;7065;50.880;5.502;2023-03-31T05:05:36;10.40;99.90
13982;DHT22;7065;50.880;5.502;2023-03-31T05:08:02;10.40;99.90
13982;DHT22;7065;50.880;5.502;2023-03-31T05:10:28;10.50;99.90
13982;DHT22;7065;50.880;5.502;2023-03-31T05:12:55;10.50;99.90
13982;DHT22;7065;50.880;5.502;2023-03-31T05:15:21;10.50;99.90
13982;DHT22;7065;50.880;5.502;2023-03-31T05:17:49;10.50;99.90
13982;DHT22;7065;50.880;5.502;2023-03-31T05:20:15;10.50;99.90
13982;DHT22;7065;50.880;5.502;2023-03-31T05:22:41;10.40;99.90
13982;DHT22;7065;50.880;5.502;2023-03-31T05:25:08;10.30;99.90
13982;DHT22;7065;50.880;5.502;2023-03-31T05:27:36;10.30;99.90
13982;DHT22;7065;50.880;5.502;2023-03-31T05:30:03;10.30;99.90
13982;DHT22;7065;50.880;5.502;2023-03-31T05:32:29;10.30;99.90
13982;DHT22;7065;50.880;5.502;2023-03-31T05:34:54;10.30;99.90
13982;DHT22;7065;50.880;5.502;2023-03-31T05:37:23;10.30;99.90
13982;DHT22;7065;50.880;5.502;2023-03-31T05:39:49;10.30;99.90
13982;DHT22;7065;50.880;5.502;2023-03-31T05:42:15;10.30;99.90
13982;DHT22;7065;50.880;5.502;2023-03-31T05:44:41;10.30;99.90
13982;DHT22;7065;50.880;5.502;2023-03-31T05:47:07;10.30;99.90
13982;DHT22;7065;50.880;5.502;2023-03-31T05:49:33;10.40;99.90
13982;DHT22;7065;50.880;5.502;2023-03-31T05:51:58;10.40;99.90
13982;DHT22;7065;50.880;5.502;2023-03-31T05:54:25;10.40;99.90
13982;DHT22;7065;50.880;5.502;2023-03-31T05:56:51;10.40;99.90
13982;DHT22;7065;50.880;5.502;2023-03-31T05:59:17;10.40;99.90
13982;DHT22;7065;50.880;5.502;2023-03-31T06:01:43;10.40;99.90
13982;DHT22;7065;50.880;5.502;2023-03-31T06:04:09;10.40;99.90
13982;DHT22;7065;50.880;5.502;2023-03-31T06:06:35;10.40;99.90
13982;DHT22;7065;50.880;5.502;2023-03-31T06:09:03;10.40;99.90
13982;DHT22;7065;50.880;5.502;2023-03-31T06:11:29;10.40;99.90
13982;DHT22;7065;50.880;5.502;2023-03-31T06:13:55;10.50;99.90
13982;DHT22;7065;50.880;5.502;2023-03-31T06:16:21;10.50;99.90
13982;DHT22;7065;50.880;5.502;2023-03-31T06:18:47;10.50;99.90
13982;DHT22;7065;50.880;5.502;2023-03-31T06:21:14;10.60;99.90
13982;DHT22;7065;50.880;5.502;2023-03-31T06:23:44;10.60;99.90
13982;DHT22;7065;50.880;5.502;2023-03-31T06:26:17;10.60;99.90
13982;DHT22;7065;50.880;5.502;2023-03-31T06:28:44;10.60;99.90
13982;DHT22;7065;50.880;5.502;2023-03-31T06:31:13;10.70;99.90
13982;DHT22;7065;50.880;5.502;2023-03-31T06:33:40;10.70;99.90
13982;DHT22;7065;50.880;5.502;2023-03-31T06:36:07;10.70;99.90
13982;DHT22;7065;50.880;5.502;2023-03-31T06:38:34;10.80;99.90
13982;DHT22;7065;50.880;5.502;2023-03-31T06:41:01;10.80;99.90
13982;DHT22;7065;50.880;5.502;2023-03-31T06:43:27;10.80;99.90
13982;DHT22;7065;50.880;5.502;2023-03-31T06:45:54;10.90;99.90
13982;DHT22;7065;50.880;5.502;2023-03-31T06:48:21;10.80;99.90
13982;DHT22;7065;50.880;5.502;2023-03-31T06:50:47;10.80;99.90
13982;DHT22;7065;50.880;5.502;2023-03-31T06:53:13;10.80;99.90
13982;DHT22;7065;50.880;5.502;2023-03-31T06:55:39;10.90;99.90
13982;DHT22;7065;50.880;5.502;2023-03-31T06:58:05;10.90;99.90
13982;DHT22;7065;50.880;5.502;2023-03-31T07:00:31;11.00;99.90
13982;DHT22;7065;50.880;5.502;2023-03-31T07:02:57;11.00;99.90
13982;DHT22;7065;50.880;5.502;2023-03-31T07:05:24;11.10;99.90
13982;DHT22;7065;50.880;5.502;2023-03-31T07:07:54;11.10;99.90
13982;DHT22;7065;50.880;5.502;2023-03-31T07:10:20;11.20;99.90
13982;DHT22;7065;50.880;5.502;2023-03-31T07:12:47;11.20;99.90
13982;DHT22;7065;50.880;5.502;2023-03-31T07:15:13;11.30;99.90
13982;DHT22;7065;50.880;5.502;2023-03-31T07:17:39;11.30;99.90
13982;DHT22;7065;50.880;5.502;2023-03-31T07:20:08;11.40;99.90
13982;DHT22;7065;50.880;5.502;2023-03-31T07:22:38;11.40;99.90
13982;DHT22;7065;50.880;5.502;2023-03-31T07:25:06;11.40;99.90
13982;DHT22;7065;50.880;5.502;2023-03-31T07:27:33;11.50;99.90
13982;DHT22;7065;50.880;5.502;2023-03-31T07:29:59;11.50;99.90
13982;DHT22;7065;50.880;5.502;2023-03-31T07:32:25;11.60;99.90
13982;DHT22;7065;50.880;5.502;2023-03-31T07:34:51;11.70;99.90
13982;DHT22;7065;50.880;5.502;2023-03-31T07:37:16;11.80;99.90
13982;DHT22;7065;50.880;5.502;2023-03-31T07:39:42;11.80;99.90
13982;DHT22;7065;50.880;5.502;2023-03-31T07:42:08;12.00;99.90
13982;DHT22;7065;50.880;5.502;2023-03-31T07:44:35;12.10;99.90
13982;DHT22;7065;50.880;5.502;2023-03-31T07:47:02;12.20;99.90
13982;DHT22;7065;50.880;5.502;2023-03-31T07:49:32;12.20;99.90
13982;DHT22;7065;50.880;5.502;2023-03-31T07:51:58;12.20;99.90
13982;DHT22;7065;50.880;5.502;2023-03-31T07:54:24;12.20;99.90
13982;DHT22;7065;50.880;5.502;2023-03-31T07:56:51;12.30;99.90
13982;DHT22;7065;50.880;5.502;2023-03-31T07:59:16;12.30;99.90
13982;DHT22;7065;50.880;5.502;2023-03-31T08:01:42;12.30;99.90
13982;DHT22;7065;50.880;5.502;2023-03-31T08:04:09;12.40;99.90
13982;DHT22;7065;50.880;5.502;2023-03-31T08:06:35;12.50;99.90
13982;DHT22;7065;50.880;5.502;2023-03-31T08:09:01;12.60;99.90
13982;DHT22;7065;50.880;5.502;2023-03-31T08:11:27;12.60;99.90
13982;DHT22;7065;50.880;5.502;2023-03-31T08:13:52;12.60;99.90
13982;DHT22;7065;50.880;5.502;2023-03-31T08:16:18;12.70;99.90
13982;DHT22;7065;50.880;5.502;2023-03-31T08:18:44;12.80;99.90
13982;DHT22;7065;50.880;5.502;2023-03-31T08:21:10;12.80;99.90
13982;DHT22;7065;50.880;5.502;2023-03-31T08:23:36;12.90;99.90
13982;DHT22;7065;50.880;5.502;2023-03-31T08:28:34;12.80;99.90
13982;DHT22;7065;50.880;5.502;2023-03-31T08:31:07;12.80;99.90
13982;DHT22;7065;50.880;5.502;2023-03-31T08:33:33;12.80;99.90
13982;DHT22;7065;50.880;5.502;2023-03-31T08:36:03;12.80;99.90
13982;DHT22;7065;50.880;5.502;2023-03-31T08:38:30;12.70;99.90
13982;DHT22;7065;50.880;5.502;2023-03-31T08:41:05;12.70;99.90
13982;DHT22;7065;50.880;5.502;2023-03-31T08:43:41;12.60;99.90
13982;DHT22;7065;50.880;5.502;2023-03-31T08:46:12;12.60;99.90
13982;DHT22;7065;50.880;5.502;2023-03-31T08:48:44;12.60;99.90
13982;DHT22;7065;50.880;5.502;2023-03-31T08:51:15;12.70;99.90
13982;DHT22;7065;50.880;5.502;2023-03-31T08:56:32;12.80;99.90
13982;DHT22;7065;50.880;5.502;2023-03-31T08:58:59;12.90;99.90
13982;DHT22;7065;50.880;5.502;2023-03-31T09:01:48;12.90;99.90
13982;DHT22;7065;50.880;5.502;2023-03-31T09:06:57;13.00;99.90
13982;DHT22;7065;50.880;5.502;2023-03-31T09:12:15;13.00;99.90
13982;DHT22;7065;50.880;5.502;2023-03-31T09:19:56;13.10;99.90
13982;DHT22;7065;50.880;5.502;2023-03-31T09:22:31;13.10;99.90
13982;DHT22;7065;50.880;5.502;2023-03-31T09:25:06;13.00;99.90
13982;DHT22;7065;50.880;5.502;2023-03-31T09:27:37;13.00;99.90
13982;DHT22;7065;50.880;5.502;2023-03-31T09:32:39;12.60;99.90
13982;DHT22;7065;50.880;5.502;2023-03-31T09:35:22;12.30;99.90
13982;DHT22;7065;50.880;5.502;2023-03-31T09:37:50;12.20;99.90
13982;DHT22;7065;50.880;5.502;2023-03-31T09:40:23;12.20;99.90
13982;DHT22;7065;50.880;5.502;2023-03-31T09:42:57;12.20;99.90
13982;DHT22;7065;50.880;5.502;2023-03-31T09:45:24;12.20;99.90
13982;DHT22;7065;50.880;5.502;2023-03-31T09:47:54;12.30;99.90
13982;DHT22;7065;50.880;5.502;2023-03-31T09:50:22;12.30;99.90
13982;DHT22;7065;50.880;5.502;2023-03-31T09:52:51;12.30;99.90
13982;DHT22;7065;50.880;5.502;2023-03-31T09:55:22;12.20;99.90
13982;DHT22;7065;50.880;5.502;2023-03-31T09:57:49;12.20;99.90
13982;DHT22;7065;50.880;5.502;2023-03-31T10:00:18;12.10;99.90
13982;DHT22;7065;50.880;5.502;2023-03-31T10:02:47;12.10;99.90
13982;DHT22;7065;50.880;5.502;2023-03-31T10:08:23;12.10;99.90
13982;DHT22;7065;50.880;5.502;2023-03-31T10:13:26;12.20;99.90
13982;DHT22;7065;50.880;5.502;2023-03-31T10:16:05;12.20;99.90
13982;DHT22;7065;50.880;5.502;2023-03-31T10:18:41;12.20;99.90
13982;DHT22;7065;50.880;5.502;2023-03-31T10:21:24;12.30;99.90
13982;DHT22;7065;50.880;5.502;2023-03-31T10:23:51;12.30;99.90
13982;DHT22;7065;50.880;5.502;2023-03-31T10:26:23;12.40;99.90
13982;DHT22;7065;50.880;5.502;2023-03-31T10:28:51;12.40;99.90
13982;DHT22;7065;50.880;5.502;2023-03-31T10:31:18;12.60;99.90
13982;DHT22;7065;50.880;5.502;2023-03-31T10:33:48;12.70;99.90
13982;DHT22;7065;50.880;5.502;2023-03-31T10:36:17;12.80;99.90
13982;DHT22;7065;50.880;5.502;2023-03-31T10:38:45;12.90;99.90
13982;DHT22;7065;50.880;5.502;2023-03-31T10:41:11;13.00;99.90
13982;DHT22;7065;50.880;5.502;2023-03-31T10:43:47;13.10;99.90
13982;DHT22;7065;50.880;5.502;2023-03-31T10:46:13;13.20;99.90
13982;DHT22;7065;50.880;5.502;2023-03-31T10:48:40;13.30;99.90
13982;DHT22;7065;50.880;5.502;2023-03-31T11:13:33;12.80;99.90
13982;DHT22;7065;50.880;5.502;2023-03-31T11:21:31;13.10;99.90
13982;DHT22;7065;50.880;5.502;2023-03-31T11:32:32;13.50;99.90
13982;DHT22;7065;50.880;5.502;2023-03-31T11:41:02;13.80;99.90
13982;DHT22;7065;50.880;5.502;2023-03-31T11:46:26;13.90;99.90
13982;DHT22;7065;50.880;5.502;2023-03-31T11:49:00;13.90;99.90
13982;DHT22;7065;50.880;5.502;2023-03-31T11:51:41;13.90;99.90
13982;DHT22;7065;50.880;5.502;2023-03-31T11:54:22;13.90;99.90
13982;DHT22;7065;50.880;5.502;2023-03-31T11:56:49;13.90;99.90
13982;DHT22;7065;50.880;5.502;2023-03-31T11:59:16;14.00;99.90
13982;DHT22;7065;50.880;5.502;2023-03-31T12:04:35;14.00;99.90
13982;DHT22;7065;50.880;5.502;2023-03-31T12:14:48;14.10;99.90
13982;DHT22;7065;50.880;5.502;2023-03-31T12:17:18;14.10;99.90
13982;DHT22;7065;50.880;5.502;2023-03-31T12:20:03;14.20;99.90
13982;DHT22;7065;50.880;5.502;2023-03-31T12:22:53;14.20;99.90
13982;DHT22;7065;50.880;5.502;2023-03-31T12:25:21;14.20;99.90
13982;DHT22;7065;50.880;5.502;2023-03-31T12:27:47;14.30;99.90
13982;DHT22;7065;50.880;5.502;2023-03-31T12:30:36;14.30;99.90
13982;DHT22;7065;50.880;5.502;2023-03-31T12:33:19;14.30;99.90
13982;DHT22;7065;50.880;5.502;2023-03-31T12:43:41;14.10;99.90
13982;DHT22;7065;50.880;5.502;2023-03-31T12:46:47;14.10;99.90
13982;DHT22;7065;50.880;5.502;2023-03-31T13:01:24;14.10;99.90
13982;DHT22;7065;50.880;5.502;2023-03-31T13:04:05;14.30;99.90
13982;DHT22;7065;50.880;5.502;2023-03-31T13:09:05;14.40;99.90
13982;DHT22;7065;50.880;5.502;2023-03-31T13:14:12;14.20;99.90
13982;DHT22;7065;50.880;5.502;2023-03-31T13:16:38;14.00;99.90
13982;DHT22;7065;50.880;5.502;2023-03-31T13:19:04;13.90;99.90
13982;DHT22;7065;50.880;5.502;2023-03-31T13:21:30;13.80;99.90
13982;DHT22;7065;50.880;5.502;2023-03-31T13:24:00;13.70;99.90
13982;DHT22;7065;50.880;5.502;2023-03-31T13:26:37;13.70;99.90
13982;DHT22;7065;50.880;5.502;2023-03-31T13:34:37;13.40;99.90
13982;DHT22;7065;50.880;5.502;2023-03-31T13:40:29;12.90;99.90
13982;DHT22;7065;50.880;5.502;2023-03-31T13:43:14;12.70;99.90
13982;DHT22;7065;50.880;5.502;2023-03-31T13:56:52;11.90;99.90
13982;DHT22;7065;50.880;5.502;2023-03-31T14:02:10;12.00;99.90
13982;DHT22;7065;50.880;5.502;2023-03-31T14:04:55;12.00;99.90
13982;DHT22;7065;50.880;5.502;2023-03-31T14:07:45;11.90;99.90
13982;DHT22;7065;50.880;5.502;2023-03-31T14:10:31;11.90;99.90
13982;DHT22;7065;50.880;5.502;2023-03-31T14:15:43;11.80;99.90
13982;DHT22;7065;50.880;5.502;2023-03-31T14:18:16;11.80;99.90
13982;DHT22;7065;50.880;5.502;2023-03-31T14:21:34;11.90;99.90
13982;DHT22;7065;50.880;5.502;2023-03-31T14:26:42;11.90;99.90
13982;DHT22;7065;50.880;5.502;2023-03-31T14:29:38;12.00;99.90
13982;DHT22;7065;50.880;5.502;2023-03-31T14:35:27;12.00;99.90
13982;DHT22;7065;50.880;5.502;2023-03-31T14:37:56;12.00;99.90
13982;DHT22;7065;50.880;5.502;2023-03-31T14:40:22;12.00;99.90
13982;DHT22;7065;50.880;5.502;2023-03-31T14:42:48;12.10;99.90
13982;DHT22;7065;50.880;5.502;2023-03-31T14:47:42;12.20;99.90
13982;DHT22;7065;50.880;5.502;2023-03-31T14:50:18;12.20;99.90
13982;DHT22;7065;50.880;5.502;2023-03-31T14:52:48;12.30;99.90
13982;DHT22;7065;50.880;5.502;2023-03-31T14:55:16;12.30;99.90
13982;DHT22;7065;50.880;5.502;2023-03-31T14:57:44;12.30;99.90
13982;DHT22;7065;50.880;5.502;2023-03-31T15:00:14;12.30;99.90
13982;DHT22;7065;50.880;5.502;2023-03-31T15:02:43;12.30;99.90
13982;DHT22;7065;50.880;5.502;2023-03-31T15:07:49;12.30;99.90
13982;DHT22;7065;50.880;5.502;2023-03-31T15:10:18;12.30;99.90
13982;DHT22;7065;50.880;5.502;2023-03-31T15:12:47;12.40;99.90
13982;DHT22;7065;50.880;5.502;2023-03-31T15:15:14;12.30;99.90
13982;DHT22;7065;50.880;5.502;2023-03-31T15:17:42;12.30;99.90
13982;DHT22;7065;50.880;5.502;2023-03-31T15:20:27;12.30;99.90
13982;DHT22;7065;50.880;5.502;2023-03-31T15:22:58;12.30;99.90
13982;DHT22;7065;50.880;5.502;2023-03-31T15:25:36;12.20;99.90
13982;DHT22;7065;50.880;5.502;2023-03-31T15:28:05;12.20;99.90
13982;DHT22;7065;50.880;5.502;2023-03-31T15:30:34;12.20;99.90
13982;DHT22;7065;50.880;5.502;2023-03-31T15:33:00;12.10;99.90
13982;DHT22;7065;50.880;5.502;2023-03-31T15:35:30;12.00;99.90
13982;DHT22;7065;50.880;5.502;2023-03-31T15:37:57;12.00;99.90
13982;DHT22;7065;50.880;5.502;2023-03-31T15:40:38;12.00;99.90
13982;DHT22;7065;50.880;5.502;2023-03-31T15:45:53;12.00;99.90
13982;DHT22;7065;50.880;5.502;2023-03-31T15:48:28;12.00;99.90
13982;DHT22;7065;50.880;5.502;2023-03-31T15:56:40;11.90;99.90
13982;DHT22;7065;50.880;5.502;2023-03-31T15:59:28;11.80;99.90
13982;DHT22;7065;50.880;5.502;2023-03-31T16:01:55;11.70;99.90
13982;DHT22;7065;50.880;5.502;2023-03-31T16:04:21;11.70;99.90
13982;DHT22;7065;50.880;5.502;2023-03-31T16:06:53;11.50;99.90
13982;DHT22;7065;50.880;5.502;2023-03-31T16:09:23;11.40;99.90
13982;DHT22;7065;50.880;5.502;2023-03-31T16:11:53;11.20;99.90
13982;DHT22;7065;50.880;5.502;2023-03-31T16:14:21;11.00;99.90
13982;DHT22;7065;50.880;5.502;2023-03-31T16:16:54;10.90;99.90
13982;DHT22;7065;50.880;5.502;2023-03-31T16:19:24;10.90;99.90
13982;DHT22;7065;50.880;5.502;2023-03-31T16:21:53;10.90;99.90
13982;DHT22;7065;50.880;5.502;2023-03-31T16:24:29;10.90;99.90
13982;DHT22;7065;50.880;5.502;2023-03-31T16:27:03;10.90;99.90
13982;DHT22;7065;50.880;5.502;2023-03-31T16:29:33;10.80;99.90
13982;DHT22;7065;50.880;5.502;2023-03-31T16:34:54;10.80;99.90
13982;DHT22;7065;50.880;5.502;2023-03-31T16:37:21;10.90;99.90
13982;DHT22;7065;50.880;5.502;2023-03-31T16:39:47;10.90;99.90
13982;DHT22;7065;50.880;5.502;2023-03-31T16:42:12;10.80;99.90
13982;DHT22;7065;50.880;5.502;2023-03-31T16:44:38;10.90;99.90
13982;DHT22;7065;50.880;5.502;2023-03-31T16:47:04;10.90;99.90
13982;DHT22;7065;50.880;5.502;2023-03-31T16:49:30;10.90;99.90
13982;DHT22;7065;50.880;5.502;2023-03-31T16:51:56;10.90;99.90
13982;DHT22;7065;50.880;5.502;2023-03-31T16:54:22;10.90;99.90
13982;DHT22;7065;50.880;5.502;2023-03-31T16:56:47;11.00;99.90
13982;DHT22;7065;50.880;5.502;2023-03-31T16:59:13;11.10;99.90
13982;DHT22;7065;50.880;5.502;2023-03-31T17:01:39;11.10;99.90
13982;DHT22;7065;50.880;5.502;2023-03-31T17:04:05;11.10;99.90
13982;DHT22;7065;50.880;5.502;2023-03-31T17:06:31;11.20;99.90
13982;DHT22;7065;50.880;5.502;2023-03-31T17:08:57;11.20;99.90
13982;DHT22;7065;50.880;5.502;2023-03-31T17:11:23;11.20;99.90
13982;DHT22;7065;50.880;5.502;2023-03-31T17:13:49;11.20;99.90
13982;DHT22;7065;50.880;5.502;2023-03-31T17:16:15;11.20;99.90
13982;DHT22;7065;50.880;5.502;2023-03-31T17:18:43;11.20;99.90
13982;DHT22;7065;50.880;5.502;2023-03-31T17:21:11;11.20;99.90
13982;DHT22;7065;50.880;5.502;2023-03-31T17:23:38;11.20;99.90
13982;DHT22;7065;50.880;5.502;2023-03-31T17:26:05;11.20;99.90
13982;DHT22;7065;50.880;5.502;2023-03-31T17:28:34;11.20;99.90
13982;DHT22;7065;50.880;5.502;2023-03-31T17:31:00;11.20;99.90
13982;DHT22;7065;50.880;5.502;2023-03-31T17:33:26;11.20;99.90
13982;DHT22;7065;50.880;5.502;2023-03-31T17:35:58;11.20;99.90
13982;DHT22;7065;50.880;5.502;2023-03-31T17:38:25;11.10;99.90
13982;DHT22;7065;50.880;5.502;2023-03-31T17:40:51;11.10;99.90
13982;DHT22;7065;50.880;5.502;2023-03-31T17:43:19;11.10;99.90
13982;DHT22;7065;50.880;5.502;2023-03-31T17:45:44;11.00;99.90
13982;DHT22;7065;50.880;5.502;2023-03-31T17:48:10;11.00;99.90
13982;DHT22;7065;50.880;5.502;2023-03-31T17:50:36;10.90;99.90
13982;DHT22;7065;50.880;5.502;2023-03-31T17:53:03;10.90;99.90
13982;DHT22;7065;50.880;5.502;2023-03-31T17:55:35;10.90;99.90
13982;DHT22;7065;50.880;5.502;2023-03-31T17:58:00;10.90;99.90
13982;DHT22;7065;50.880;5.502;2023-03-31T18:00:26;10.80;99.90
13982;DHT22;7065;50.880;5.502;2023-03-31T18:02:52;10.80;99.90
13982;DHT22;7065;50.880;5.502;2023-03-31T18:05:19;10.80;99.90
13982;DHT22;7065;50.880;5.502;2023-03-31T18:07:46;10.80;99.90
13982;DHT22;7065;50.880;5.502;2023-03-31T18:10:11;10.80;99.90
13982;DHT22;7065;50.880;5.502;2023-03-31T18:12:37;10.70;99.90
13982;DHT22;7065;50.880;5.502;2023-03-31T18:15:04;10.70;99.90
13982;DHT22;7065;50.880;5.502;2023-03-31T18:17:31;10.60;99.90
13982;DHT22;7065;50.880;5.502;2023-03-31T18:19:57;10.60;99.90
13982;DHT22;7065;50.880;5.502;2023-03-31T18:22:23;10.60;99.90
13982;DHT22;7065;50.880;5.502;2023-03-31T18:24:50;10.60;99.90
13982;DHT22;7065;50.880;5.502;2023-03-31T18:27:15;10.50;99.90
13982;DHT22;7065;50.880;5.502;2023-03-31T18:29:41;10.50;99.90
13982;DHT22;7065;50.880;5.502;2023-03-31T18:32:07;10.50;99.90
13982;DHT22;7065;50.880;5.502;2023-03-31T18:34:34;10.50;99.90
13982;DHT22;7065;50.880;5.502;2023-03-31T18:37:01;10.50;99.90
13982;DHT22;7065;50.880;5.502;2023-03-31T18:39:28;10.50;99.90
13982;DHT22;7065;50.880;5.502;2023-03-31T18:41:53;10.50;99.90
13982;DHT22;7065;50.880;5.502;2023-03-31T18:44:19;10.50;99.90
13982;DHT22;7065;50.880;5.502;2023-03-31T18:46:46;10.50;99.90
13982;DHT22;7065;50.880;5.502;2023-03-31T18:49:12;10.50;99.90
13982;DHT22;7065;50.880;5.502;2023-03-31T18:51:38;10.50;99.90
13982;DHT22;7065;50.880;5.502;2023-03-31T18:54:05;10.40;99.90
13982;DHT22;7065;50.880;5.502;2023-03-31T18:56:31;10.40;99.90
13982;DHT22;7065;50.880;5.502;2023-03-31T18:58:56;10.30;99.90
13982;DHT22;7065;50.880;5.502;2023-03-31T19:01:22;10.30;99.90
13982;DHT22;7065;50.880;5.502;2023-03-31T19:03:48;10.30;99.90
13982;DHT22;7065;50.880;5.502;2023-03-31T19:06:14;10.30;99.90
13982;DHT22;7065;50.880;5.502;2023-03-31T19:08:42;10.30;99.90
13982;DHT22;7065;50.880;5.502;2023-03-31T19:11:11;10.30;99.90
13982;DHT22;7065;50.880;5.502;2023-03-31T19:13:38;10.20;99.90
13982;DHT22;7065;50.880;5.502;2023-03-31T19:16:05;10.20;99.90
13982;DHT22;7065;50.880;5.502;2023-03-31T19:18:30;10.20;99.90